Time;durP1;ratioP1;P1;durP2;ratioP2;P2;SDS_P1;SDS_P2;PMS_P1;PMS_P2;Temp;Humidity;BMP_temperature;BMP_pressure;BME280_temperature;BME280_humidity;BME280_pressure;Samples;Min_cycle;Max_cycle;Signal;HPM_P1;HPM_P2
2021/03/25 00:04:27;;;;;;;6.83;5.70;;;19.30;47.80;;;;;;10423778;28;20270;-23
2021/03/25 00:09:50;;;;;;;6.27;5.60;;;19.30;47.90;;;;;;10449962;28;20221;-24
2021/03/25 00:15:13;;;;;;;6.60;5.60;;;19.30;47.90;;;;;;10450650;28;20704;-24
2021/03/25 00:20:35;;;;;;;6.77;5.80;;;19.20;47.80;;;;;;10450490;28;20240;-22
2021/03/25 00:25:58;;;;;;;6.27;5.50;;;19.20;47.90;;;;;;10448430;28;20708;-23
2021/03/25 00:31:19;;;;;;;6.50;5.57;;;19.20;47.90;;;;;;10450002;28;20224;-23
2021/03/25 00:36:41;;;;;;;6.27;5.67;;;19.20;48.10;;;;;;10450850;28;20197;-22
2021/03/25 00:42:05;;;;;;;6.67;5.60;;;19.20;48.00;;;;;;10445931;28;20221;-20
2021/03/25 00:47:27;;;;;;;6.20;5.53;;;19.20;48.00;;;;;;10416813;28;20243;-22
2021/03/25 00:52:48;;;;;;;6.33;5.73;;;19.10;48.00;;;;;;10417196;28;20219;-23
2021/03/25 00:58:11;;;;;;;7.57;5.80;;;19.10;48.00;;;;;;10417534;28;20199;-24
2021/03/25 01:03:32;;;;;;;6.10;5.50;;;19.10;48.00;;;;;;10417728;28;20283;-21
2021/03/25 01:08:54;;;;;;;7.53;5.87;;;19.10;48.10;;;;;;10416275;28;20379;-22
2021/03/25 01:14:20;;;;;;;6.00;5.40;;;19.10;48.00;;;;;;10415580;28;20222;-22
2021/03/25 01:19:42;;;;;;;7.13;5.57;;;19.00;48.10;;;;;;10416466;28;20182;-21
2021/03/25 01:25:04;;;;;;;6.87;5.63;;;19.00;48.10;;;;;;10415480;28;20225;-22
2021/03/25 01:30:28;;;;;;;5.87;5.27;;;19.00;48.10;;;;;;10416196;28;20214;-20
2021/03/25 01:35:51;;;;;;;5.47;4.97;;;19.00;48.10;;;;;;10450705;28;20234;-23
2021/03/25 01:41:13;;;;;;;6.33;5.10;;;19.00;48.20;;;;;;10450373;28;20212;-22
2021/03/25 01:46:37;;;;;;;6.07;5.47;;;19.00;48.20;;;;;;10415645;28;20588;-23
2021/03/25 01:52:13;;;;;;;5.73;5.07;;;19.00;48.10;;;;;;10413227;28;20232;-23
2021/03/25 01:57:57;;;;;;;5.40;4.90;;;19.00;48.00;;;;;;10440881;28;20568;-22
2021/03/25 02:03:53;;;;;;;5.67;5.10;;;18.90;48.00;;;;;;10440707;28;20288;-22
2021/03/25 02:09:20;;;;;;;6.50;5.60;;;18.90;48.00;;;;;;10413933;28;20217;-23
2021/03/25 02:14:47;;;;;;;5.40;4.80;;;18.90;48.00;;;;;;10370116;23;20297;-21
2021/03/25 02:20:51;;;;;;;5.87;4.97;;;18.90;48.10;;;;;;10332427;28;20187;-23
2021/03/25 02:26:18;;;;;;;5.70;5.10;;;18.90;48.00;;;;;;10291229;28;20250;-23
2021/03/25 02:31:42;;;;;;;5.80;5.17;;;18.90;48.20;;;;;;10289998;28;20220;-24
2021/03/25 02:37:08;;;;;;;5.83;5.23;;;18.90;48.10;;;;;;10292347;28;20647;-24
2021/03/25 02:42:36;;;;;;;5.70;4.70;;;18.90;48.10;;;;;;10291505;28;20365;-23
2021/03/25 02:48:02;;;;;;;5.80;5.30;;;18.90;48.20;;;;;;10291799;28;20227;-25
2021/03/25 02:53:30;;;;;;;4.97;4.47;;;18.90;48.20;;;;;;10291103;28;20216;-25
2021/03/25 02:59:05;;;;;;;5.90;5.30;;;18.90;48.20;;;;;;10291503;28;20196;-25
2021/03/25 03:04:31;;;;;;;5.30;4.80;;;18.90;48.10;;;;;;10290291;28;20213;-25
2021/03/25 03:09:56;;;;;;;4.97;4.53;;;18.90;48.20;;;;;;10289341;28;20212;-23
2021/03/25 03:15:24;;;;;;;5.90;5.30;;;18.90;48.20;;;;;;10290905;28;20239;-21
2021/03/25 03:20:53;;;;;;;5.17;4.67;;;18.90;48.20;;;;;;10288738;28;20192;-23
2021/03/25 03:26:22;;;;;;;5.47;4.97;;;18.90;48.10;;;;;;10288760;28;20203;-23
2021/03/25 03:31:48;;;;;;;6.20;4.73;;;18.90;48.20;;;;;;10288491;28;20224;-23
2021/03/25 03:37:15;;;;;;;5.57;5.03;;;18.80;48.10;;;;;;10288134;28;20204;-23
2021/03/25 03:42:38;;;;;;;6.67;4.80;;;18.80;48.10;;;;;;10288169;28;20215;-24
2021/03/25 03:48:04;;;;;;;5.13;4.60;;;18.80;48.10;;;;;;10289042;28;20278;-23
2021/03/25 03:53:29;;;;;;;6.23;5.00;;;18.80;48.10;;;;;;10288944;28;20219;-23
2021/03/25 03:58:55;;;;;;;5.70;4.70;;;18.80;48.10;;;;;;10287831;28;20702;-23
2021/03/25 04:04:23;;;;;;;5.40;4.53;;;18.80;48.10;;;;;;10289049;28;20568;-23
2021/03/25 04:09:50;;;;;;;5.43;4.93;;;18.80;48.00;;;;;;10288354;28;20230;-22
2021/03/25 04:15:17;;;;;;;6.13;4.77;;;18.80;48.10;;;;;;10292868;28;20234;-23
2021/03/25 04:20:43;;;;;;;5.57;5.07;;;18.80;48.10;;;;;;10295895;28;20540;-22
2021/03/25 04:26:14;;;;;;;5.57;4.97;;;18.80;48.10;;;;;;10296426;28;20207;-24
2021/03/25 04:31:36;;;;;;;5.80;4.80;;;18.80;48.10;;;;;;10295364;28;20294;-23
2021/03/25 04:36:58;;;;;;;5.13;4.63;;;18.80;48.00;;;;;;10294322;28;20192;-24
2021/03/25 04:42:21;;;;;;;5.50;5.00;;;18.80;48.10;;;;;;10295469;28;20216;-22
2021/03/25 04:47:45;;;;;;;5.13;4.63;;;18.80;47.90;;;;;;10295286;28;20226;-22
2021/03/25 04:53:20;;;;;;;4.90;4.40;;;18.90;47.80;;;;;;10294030;28;20219;-22
2021/03/25 04:58:47;;;;;;;5.87;4.60;;;18.90;47.70;;;;;;10294902;28;20615;-23
2021/03/25 05:04:13;;;;;;;5.07;4.57;;;18.90;47.60;;;;;;10294579;28;20216;-22
2021/03/25 05:09:36;;;;;;;5.43;4.70;;;18.90;47.70;;;;;;10294351;28;20223;-22
2021/03/25 05:15:05;;;;;;;5.37;4.87;;;18.90;47.70;;;;;;10294120;28;20227;-24
2021/03/25 05:20:34;;;;;;;5.50;4.90;;;18.90;47.80;;;;;;10294449;28;20192;-22
2021/03/25 05:26:03;;;;;;;6.50;4.70;;;18.90;47.80;;;;;;10292902;28;20720;-22
2021/03/25 05:31:27;;;;;;;5.07;4.47;;;19.00;47.70;;;;;;10293406;28;20733;-23
2021/03/25 05:36:53;;;;;;;5.33;4.83;;;19.00;47.60;;;;;;10294209;28;20680;-23
2021/03/25 05:42:25;;;;;;;5.47;4.43;;;19.00;47.50;;;;;;10292738;28;20219;-22
2021/03/25 05:48:10;;;;;;;6.27;5.20;;;19.10;47.50;;;;;;10290753;28;20220;-22
2021/03/25 05:53:42;;;;;;;6.43;5.10;;;19.00;47.50;;;;;;10292490;28;20224;-23
2021/03/25 05:59:10;;;;;;;4.97;4.47;;;19.10;47.50;;;;;;10292227;28;20206;-22
2021/03/25 06:04:34;;;;;;;9.47;5.00;;;19.10;47.40;;;;;;10293056;28;20220;-22
2021/03/25 06:10:07;;;;;;;6.63;5.43;;;19.10;47.60;;;;;;10292172;28;20215;-22
2021/03/25 06:15:49;;;;;;;7.07;5.90;;;19.10;47.60;;;;;;10289795;28;20227;-21
2021/03/25 06:21:19;;;;;;;6.70;5.47;;;19.00;47.70;;;;;;10283247;28;20204;-20
2021/03/25 06:26:47;;;;;;;7.10;5.47;;;19.00;47.90;;;;;;10289722;28;20196;-24
2021/03/25 06:32:15;;;;;;;5.93;5.30;;;19.00;47.90;;;;;;10291264;28;20715;-24
2021/03/25 06:37:42;;;;;;;5.43;4.83;;;19.10;47.80;;;;;;10289822;28;20204;-23
2021/03/25 06:43:09;;;;;;;5.23;4.73;;;19.10;47.60;;;;;;10289418;28;20211;-25
2021/03/25 06:48:38;;;;;;;7.30;5.10;;;19.10;47.60;;;;;;10290433;28;20254;-22
2021/03/25 06:54:09;;;;;;;5.67;5.13;;;19.10;47.70;;;;;;10289945;28;20217;-22
2021/03/25 06:59:34;;;;;;;10.80;8.23;;;19.10;47.70;;;;;;10283852;28;20576;-21
2021/03/25 07:04:59;;;;;;;29.17;21.17;;;19.20;47.80;;;;;;10281822;28;20219;-21
2021/03/25 07:10:22;;;;;;;32.33;24.13;;;19.10;42.80;;;;;;10266704;28;20224;-21
2021/03/25 07:15:44;;;;;;;35.03;25.73;;;19.10;41.80;;;;;;10253916;29;20235;-21
2021/03/25 07:21:31;;;;;;;32.57;25.70;;;19.10;41.50;;;;;;10287258;28;20192;-22
2021/03/25 07:26:57;;;;;;;40.50;27.33;;;19.20;41.60;;;;;;10288613;28;20197;-21
2021/03/25 07:32:34;;;;;;;34.10;24.47;;;19.30;41.70;;;;;;10287320;28;20216;-23
2021/03/25 07:37:57;;;;;;;32.20;22.73;;;19.50;41.70;;;;;;10286662;28;20196;-21
2021/03/25 07:43:23;;;;;;;29.83;21.80;;;19.50;42.00;;;;;;10272056;28;20990;-21
2021/03/25 07:48:56;;;;;;;31.50;20.80;;;19.60;41.90;;;;;;10255715;28;20211;-22
2021/03/25 07:54:26;;;;;;;30.83;21.67;;;19.70;42.30;;;;;;10280127;28;20630;-22
2021/03/25 07:59:51;;;;;;;27.70;21.20;;;19.70;41.60;;;;;;10289665;28;20675;-22
2021/03/25 08:05:20;;;;;;;27.23;19.63;;;19.80;42.30;;;;;;10287561;28;20229;-22
2021/03/25 08:10:44;;;;;;;24.53;17.63;;;19.80;42.70;;;;;;10278600;28;20227;-21
2021/03/25 08:16:08;;;;;;;22.20;15.47;;;19.80;43.00;;;;;;10280131;28;20199;-23
2021/03/25 08:21:40;;;;;;;22.20;14.43;;;19.70;44.10;;;;;;10261960;28;20275;-21
2021/03/25 08:27:23;;;;;;;21.23;13.93;;;19.60;44.20;;;;;;10249174;28;20739;-22
2021/03/25 08:32:56;;;;;;;18.00;13.80;;;19.50;44.50;;;;;;10243417;29;20849;-21
2021/03/25 08:38:36;;;;;;;16.73;12.53;;;19.40;44.40;;;;;;10243533;29;20674;-23
2021/03/25 08:44:09;;;;;;;19.93;11.90;;;19.40;44.60;;;;;;10269615;28;20219;-22
2021/03/25 08:49:37;;;;;;;20.57;13.20;;;19.30;44.60;;;;;;10284255;28;20223;-22
2021/03/25 08:55:09;;;;;;;17.10;11.83;;;19.30;44.40;;;;;;10281685;28;20222;-22
2021/03/25 09:00:37;;;;;;;18.90;11.50;;;19.20;45.10;;;;;;10285521;28;20199;-22
2021/03/25 09:06:05;;;;;;;17.17;10.70;;;19.20;45.10;;;;;;10290464;28;20199;-22
2021/03/25 09:11:26;;;;;;;17.33;11.93;;;19.00;45.60;;;;;;10289529;28;20232;-22
2021/03/25 09:16:49;;;;;;;18.97;11.67;;;19.00;45.40;;;;;;10290337;28;20215;-22
2021/03/25 09:22:37;;;;;;;16.40;11.37;;;19.00;45.80;;;;;;10284527;28;20673;-22
2021/03/25 09:28:01;;;;;;;17.63;11.57;;;18.90;45.50;;;;;;10245846;29;20226;-24
2021/03/25 09:33:46;;;;;;;13.17;9.23;;;18.90;46.20;;;;;;10255919;28;20259;-25
2021/03/25 09:39:28;;;;;;;11.77;7.30;;;18.90;45.50;;;;;;10285884;28;20200;-23
2021/03/25 09:44:51;;;;;;;11.93;6.93;;;18.90;44.60;;;;;;10285378;28;20233;-23
2021/03/25 09:50:20;;;;;;;12.97;9.23;;;18.90;44.80;;;;;;10425169;23;20708;-29
2021/03/25 09:56:03;;;;;;;12.80;8.77;;;18.80;45.70;;;;;;10486525;28;20577;-24
2021/03/25 10:01:44;;;;;;;16.00;10.53;;;18.80;46.00;;;;;;10454645;28;20688;-26
2021/03/25 10:07:35;;;;;;;14.73;9.20;;;18.80;45.10;;;;;;10486357;28;20690;-28
2021/03/25 10:13:40;;;;;;;12.87;8.47;;;18.80;45.10;;;;;;10533965;28;20188;-21
2021/03/25 10:19:05;;;;;;;9.73;6.90;;;18.80;45.30;;;;;;10530488;28;20211;-30
2021/03/25 10:24:40;;;;;;;9.53;6.80;;;18.70;45.00;;;;;;10509056;28;20201;-24
2021/03/25 10:30:24;;;;;;;11.30;7.33;;;18.70;45.10;;;;;;10526439;28;20281;-26
2021/03/25 10:35:51;;;;;;;10.87;7.73;;;18.70;44.80;;;;;;10496655;28;20192;-23
2021/03/25 10:41:18;;;;;;;11.07;7.20;;;18.70;45.20;;;;;;10492260;28;20765;-30
2021/03/25 10:46:40;;;;;;;10.10;6.77;;;18.70;45.40;;;;;;10487301;28;20295;-27
2021/03/25 10:52:02;;;;;;;11.73;6.63;;;18.70;45.10;;;;;;10487501;28;20232;-27
2021/03/25 10:57:27;;;;;;;12.80;7.50;;;18.70;44.80;;;;;;10487803;28;20192;-27
2021/03/25 11:02:49;;;;;;;12.87;7.80;;;18.60;44.70;;;;;;10487516;28;20199;-25
2021/03/25 11:08:30;;;;;;;17.23;9.10;;;18.60;45.70;;;;;;10482546;28;20521;-31
2021/03/25 11:14:01;;;;;;;18.20;9.43;;;18.60;45.30;;;;;;10478161;28;20276;-25
2021/03/25 11:19:24;;;;;;;15.73;10.23;;;18.60;45.60;;;;;;10483009;28;20209;-27
2021/03/25 11:24:46;;;;;;;15.97;10.97;;;18.60;45.30;;;;;;10504199;28;20544;-29
2021/03/25 11:30:24;;;;;;;16.00;11.50;;;18.60;45.40;;;;;;10486411;28;20228;-27
2021/03/25 11:35:47;;;;;;;15.63;10.13;;;18.60;45.90;;;;;;10486188;28;20200;-29
2021/03/25 11:41:11;;;;;;;13.97;8.67;;;18.60;46.00;;;;;;10491221;28;20218;-27
2021/03/25 11:46:35;;;;;;;9.77;7.17;;;18.60;45.70;;;;;;10528146;28;20219;-21
2021/03/25 11:52:00;;;;;;;12.57;7.47;;;18.70;45.30;;;;;;10525627;28;20273;-25
2021/03/25 11:57:26;;;;;;;10.73;7.17;;;18.70;45.20;;;;;;10493399;28;20241;-36
2021/03/25 12:02:48;;;;;;;12.00;7.20;;;18.80;45.30;;;;;;10485101;28;20200;-30
2021/03/25 12:08:32;;;;;;;11.80;6.87;;;18.70;45.50;;;;;;10487438;28;20691;-29
2021/03/25 12:13:53;;;;;;;14.17;7.13;;;18.80;45.10;;;;;;10472332;28;20199;-29
2021/03/25 12:19:15;;;;;;;12.03;7.53;;;18.70;44.50;;;;;;10486762;28;20250;-26
2021/03/25 12:24:37;;;;;;;13.07;8.03;;;18.60;43.90;;;;;;10485342;28;20201;-26
2021/03/25 12:29:59;;;;;;;10.10;7.00;;;18.60;44.10;;;;;;10485145;28;20216;-25
2021/03/25 12:35:23;;;;;;;9.63;5.90;;;18.50;43.40;;;;;;10494084;28;20685;-23
2021/03/25 12:40:46;;;;;;;9.17;5.40;;;18.50;43.00;;;;;;10498364;28;20208;-26
2021/03/25 12:46:08;;;;;;;8.50;5.80;;;18.50;43.40;;;;;;10540225;28;20192;-24
2021/03/25 12:51:30;;;;;;;9.60;6.20;;;18.50;43.10;;;;;;10538618;28;20219;-24
2021/03/25 12:56:58;;;;;;;10.17;6.43;;;18.50;43.40;;;;;;10509026;28;20200;-20
2021/03/25 13:02:19;;;;;;;9.10;5.37;;;18.50;43.60;;;;;;10497029;28;20204;-24
2021/03/25 13:07:41;;;;;;;8.40;5.23;;;18.50;44.00;;;;;;10488022;28;20215;-17
2021/03/25 13:13:05;;;;;;;11.40;6.30;;;18.50;44.20;;;;;;10492436;28;20200;-24
2021/03/25 13:18:27;;;;;;;9.17;5.77;;;18.50;44.40;;;;;;10451282;28;20278;-26
2021/03/25 13:23:49;;;;;;;8.97;5.37;;;18.50;44.30;;;;;;10450365;28;20201;-29
2021/03/25 13:29:11;;;;;;;6.10;4.43;;;18.60;44.40;;;;;;10450955;28;20231;-16
2021/03/25 13:34:33;;;;;;;7.83;4.53;;;18.70;44.40;;;;;;10454759;28;20197;-20
2021/03/25 13:39:54;;;;;;;9.70;4.83;;;18.70;43.60;;;;;;10496545;28;20610;-26
2021/03/25 13:45:18;;;;;;;9.90;5.07;;;18.70;43.70;;;;;;10534897;28;20202;-26
2021/03/25 13:50:42;;;;;;;11.00;6.70;;;18.60;43.50;;;;;;10537320;28;20276;-19
2021/03/25 13:56:04;;;;;;;11.30;6.40;;;18.60;43.70;;;;;;10517553;28;20204;-27
2021/03/25 14:01:26;;;;;;;10.90;6.33;;;18.70;43.80;;;;;;10495894;28;20213;-24
2021/03/25 14:06:48;;;;;;;10.47;6.33;;;18.70;44.40;;;;;;10496107;28;20207;-22
2021/03/25 14:12:10;;;;;;;12.47;8.37;;;18.70;44.20;;;;;;10495517;28;20231;-21
2021/03/25 14:17:34;;;;;;;11.67;8.23;;;18.70;44.50;;;;;;10498946;28;20253;-24
2021/03/25 14:22:56;;;;;;;15.80;8.73;;;18.70;44.60;;;;;;10526983;28;20196;-29
2021/03/25 14:28:20;;;;;;;12.17;8.13;;;18.70;44.60;;;;;;10493949;28;20352;-17
2021/03/25 14:33:43;;;;;;;10.93;7.20;;;18.70;44.50;;;;;;10502675;28;20188;-26
2021/03/25 14:39:05;;;;;;;12.30;7.27;;;18.70;44.70;;;;;;10535014;28;20240;-27
2021/03/25 14:44:29;;;;;;;7.93;5.03;;;18.70;44.70;;;;;;10533771;28;20709;-18
2021/03/25 14:49:51;;;;;;;11.80;6.73;;;18.60;47.60;;;;;;10483444;28;20240;-23
2021/03/25 14:55:15;;;;;;;13.67;9.57;;;18.60;47.20;;;;;;10466936;28;20265;-28
2021/03/25 15:00:42;;;;;;;12.80;8.60;;;18.60;46.10;;;;;;10456482;28;20253;-22
2021/03/25 15:06:05;;;;;;;13.17;8.43;;;18.60;45.90;;;;;;10455129;28;20335;-22
2021/03/25 15:11:27;;;;;;;13.23;8.77;;;18.60;45.40;;;;;;10534555;28;20281;-29
2021/03/25 15:16:49;;;;;;;11.27;7.80;;;18.70;45.20;;;;;;10500502;28;20199;-26
2021/03/25 15:22:12;;;;;;;15.77;10.13;;;18.80;45.20;;;;;;10480163;28;20208;-23
2021/03/25 15:27:34;;;;;;;16.33;10.07;;;18.70;44.90;;;;;;10481071;28;20197;-24
2021/03/25 15:32:56;;;;;;;18.20;10.10;;;18.70;45.40;;;;;;10483699;28;20313;-22
2021/03/25 15:38:20;;;;;;;12.97;9.07;;;18.60;46.10;;;;;;10491867;28;20216;-21
2021/03/25 15:43:42;;;;;;;22.60;11.93;;;18.50;46.30;;;;;;10491906;28;20188;-22
2021/03/25 15:49:03;;;;;;;20.03;12.73;;;18.60;46.10;;;;;;10479873;23;20759;-23
2021/03/25 15:54:26;;;;;;;19.40;12.53;;;18.50;45.90;;;;;;10359861;28;20206;-26
2021/03/25 15:59:48;;;;;;;21.60;12.00;;;18.50;46.10;;;;;;10400637;28;20271;-24
2021/03/25 16:05:11;;;;;;;17.83;10.03;;;18.50;46.70;;;;;;10393986;28;20210;-26
2021/03/25 16:10:34;;;;;;;16.67;9.13;;;18.60;45.80;;;;;;10369572;28;20254;-21
2021/03/25 16:15:56;;;;;;;15.50;6.20;;;18.90;45.90;;;;;;10373827;28;20291;-23
2021/03/25 16:21:18;;;;;;;8.70;4.83;;;19.40;45.60;;;;;;10408763;28;20264;-23
2021/03/25 16:26:40;;;;;;;5.77;4.20;;;19.90;45.00;;;;;;10409797;28;20253;-23
2021/03/25 16:32:03;;;;;;;8.03;3.80;;;20.30;44.70;;;;;;10406694;28;20846;-25
2021/03/25 16:37:24;;;;;;;5.83;3.30;;;20.60;44.20;;;;;;10407455;28;20193;-23
2021/03/25 16:42:47;;;;;;;6.53;3.63;;;20.80;43.90;;;;;;10423685;28;20226;-23
2021/03/25 16:48:10;;;;;;;7.30;3.90;;;21.00;43.60;;;;;;10408313;28;20550;-24
2021/03/25 16:53:33;;;;;;;5.37;3.30;;;21.10;43.60;;;;;;10410356;28;20201;-23
2021/03/25 16:58:55;;;;;;;4.50;3.40;;;21.20;43.40;;;;;;10449001;28;20205;-23
2021/03/25 17:04:17;;;;;;;10.53;4.43;;;20.90;43.60;;;;;;10449504;28;20427;-23
2021/03/25 17:09:40;;;;;;;8.47;3.77;;;21.00;44.60;;;;;;10448214;28;20217;-24
2021/03/25 17:15:03;;;;;;;6.80;3.93;;;20.60;44.50;;;;;;10409569;28;20198;-24
2021/03/25 17:20:28;;;;;;;6.43;3.93;;;20.30;45.50;;;;;;10408213;28;20217;-23
2021/03/25 17:25:51;;;;;;;4.50;3.30;;;20.20;45.70;;;;;;10414897;28;20256;-24
2021/03/25 17:31:15;;;;;;;6.07;4.23;;;20.20;45.80;;;;;;10414690;28;20226;-25
2021/03/25 17:36:37;;;;;;;6.07;4.30;;;20.20;45.90;;;;;;10375674;28;20672;-24
2021/03/25 17:41:58;;;;;;;8.37;4.20;;;20.20;46.00;;;;;;10394317;28;20205;-24
2021/03/25 17:47:21;;;;;;;7.10;3.80;;;20.20;46.00;;;;;;10455647;28;20193;-25
2021/03/25 17:52:42;;;;;;;6.63;4.47;;;20.30;45.90;;;;;;10441761;28;20275;-24
2021/03/25 17:58:04;;;;;;;5.33;4.13;;;20.20;46.10;;;;;;10452621;28;20620;-24
2021/03/25 18:03:27;;;;;;;6.37;4.23;;;20.20;46.20;;;;;;10413209;28;20201;-24
2021/03/25 18:08:49;;;;;;;8.17;4.80;;;20.20;46.30;;;;;;10413365;28;20579;-24
2021/03/25 18:14:10;;;;;;;9.80;4.43;;;20.20;46.40;;;;;;10406156;28;20201;-24
2021/03/25 18:19:33;;;;;;;8.97;4.60;;;20.10;46.50;;;;;;10412745;28;20213;-24
2021/03/25 18:24:55;;;;;;;7.00;4.30;;;20.10;46.70;;;;;;10413266;28;20190;-24
2021/03/25 18:30:20;;;;;;;6.50;3.90;;;20.20;46.70;;;;;;10412155;28;20217;-24
2021/03/25 18:35:45;;;;;;;6.87;4.47;;;20.10;47.40;;;;;;10377818;28;20205;-21
2021/03/25 18:41:07;;;;;;;7.10;4.40;;;20.00;47.00;;;;;;10377431;28;20212;-23
2021/03/25 18:46:28;;;;;;;6.43;4.87;;;20.00;47.20;;;;;;10411245;28;20198;-24
2021/03/25 18:51:51;;;;;;;6.70;4.37;;;20.00;47.80;;;;;;10400772;28;20230;-24
2021/03/25 18:57:12;;;;;;;6.03;4.70;;;20.00;47.30;;;;;;10434251;28;20200;-24
2021/03/25 19:02:34;;;;;;;5.67;4.47;;;20.00;47.40;;;;;;10377247;28;20226;-26
2021/03/25 19:07:57;;;;;;;6.17;4.43;;;20.00;47.30;;;;;;10395160;28;20561;-24
2021/03/25 19:13:19;;;;;;;6.10;4.07;;;20.00;47.30;;;;;;10450860;28;20217;-24
2021/03/25 19:18:41;;;;;;;6.70;4.57;;;20.00;47.50;;;;;;10451319;28;20213;-24
2021/03/25 19:24:04;;;;;;;7.13;4.27;;;20.00;47.40;;;;;;10431158;28;20193;-23
2021/03/25 19:29:26;;;;;;;5.80;4.57;;;20.10;47.40;;;;;;10451473;28;20230;-25
2021/03/25 19:34:48;;;;;;;7.70;4.60;;;20.10;47.50;;;;;;10407871;28;20929;-23
2021/03/25 19:40:12;;;;;;;6.13;5.00;;;20.00;47.60;;;;;;10378456;28;20245;-24
2021/03/25 19:45:35;;;;;;;6.30;4.40;;;20.10;47.60;;;;;;10392104;28;20573;-24
2021/03/25 19:50:56;;;;;;;5.73;4.23;;;20.10;47.60;;;;;;10388261;28;20229;-23
2021/03/25 19:56:19;;;;;;;7.50;4.47;;;20.10;47.70;;;;;;10403596;28;20232;-26
2021/03/25 20:01:42;;;;;;;6.70;4.33;;;20.10;47.70;;;;;;10400380;28;20224;-24
2021/03/25 20:07:04;;;;;;;5.17;4.40;;;20.10;47.70;;;;;;10379483;28;20224;-25
2021/03/25 20:12:27;;;;;;;5.93;4.40;;;20.10;47.80;;;;;;10371129;28;20260;-25
2021/03/25 20:17:48;;;;;;;5.23;4.00;;;20.10;47.90;;;;;;10383043;28;20200;-22
2021/03/25 20:23:13;;;;;;;7.17;4.23;;;20.20;47.60;;;;;;10409587;28;20193;-24
2021/03/25 20:28:35;;;;;;;5.03;3.97;;;20.30;47.40;;;;;;10372416;28;20406;-25
2021/03/25 20:33:57;;;;;;;7.03;4.30;;;20.30;47.70;;;;;;10369412;28;20514;-24
2021/03/25 20:39:19;;;;;;;6.97;3.70;;;20.30;47.60;;;;;;10368895;28;20621;-24
2021/03/25 20:44:41;;;;;;;4.83;3.53;;;20.20;47.90;;;;;;10433345;28;20203;-24
2021/03/25 20:50:04;;;;;;;4.73;3.93;;;20.10;48.30;;;;;;10410151;28;20233;-25
2021/03/25 20:55:28;;;;;;;6.93;4.07;;;19.90;48.50;;;;;;10427352;28;20640;-22
2021/03/25 21:00:53;;;;;;;8.80;4.30;;;19.90;48.60;;;;;;10457592;28;20211;-25
2021/03/25 21:06:15;;;;;;;6.70;4.40;;;19.90;48.70;;;;;;10457350;28;20201;-24
2021/03/25 21:11:37;;;;;;;5.07;4.30;;;19.80;48.80;;;;;;10457262;28;20600;-25
2021/03/25 21:16:59;;;;;;;5.47;4.33;;;19.80;48.80;;;;;;10457371;28;20193;-24
2021/03/25 21:22:21;;;;;;;5.23;4.10;;;19.80;48.80;;;;;;10456249;28;20615;-24
2021/03/25 21:27:43;;;;;;;5.00;4.50;;;19.80;48.80;;;;;;10456340;28;20205;-24
2021/03/25 21:33:06;;;;;;;5.77;4.47;;;19.80;48.90;;;;;;10443723;28;20271;-24
2021/03/25 21:38:28;;;;;;;8.17;4.07;;;19.80;49.00;;;;;;10411593;28;20283;-24
2021/03/25 21:43:51;;;;;;;6.90;4.70;;;19.80;48.90;;;;;;10440952;28;20208;-24
2021/03/25 21:49:14;;;;;;;4.90;3.80;;;20.40;47.70;;;;;;10470085;23;20785;-22
2021/03/25 21:54:35;;;;;;;5.00;3.70;;;20.90;46.60;;;;;;10459343;28;20197;-19
2021/03/25 21:59:57;;;;;;;4.10;3.63;;;21.40;45.80;;;;;;10455117;28;20275;-21
2021/03/25 22:05:20;;;;;;;3.93;3.50;;;21.60;45.30;;;;;;10454888;28;20208;-22
2021/03/25 22:10:42;;;;;;;6.00;4.10;;;21.80;44.90;;;;;;10453093;28;20239;-22
2021/03/25 22:16:06;;;;;;;5.20;3.80;;;21.90;45.30;;;;;;10453982;28;20209;-22
2021/03/25 22:21:29;;;;;;;5.07;3.50;;;22.00;44.70;;;;;;10453895;28;20220;-22
2021/03/25 22:26:50;;;;;;;4.17;3.40;;;22.00;44.70;;;;;;10454686;28;20566;-21
2021/03/25 22:32:12;;;;;;;5.27;3.43;;;22.10;44.70;;;;;;10454397;28;20227;-21
2021/03/25 22:37:34;;;;;;;3.27;2.97;;;22.10;44.70;;;;;;10454153;28;20208;-18
2021/03/25 22:42:56;;;;;;;3.57;3.27;;;22.20;44.60;;;;;;10471807;28;20270;-20
2021/03/25 22:48:18;;;;;;;4.00;3.60;;;22.20;44.60;;;;;;10495350;28;20629;-21
2021/03/25 22:53:43;;;;;;;5.47;3.43;;;22.20;44.50;;;;;;10494418;28;20650;-22
2021/03/25 22:59:05;;;;;;;5.70;3.70;;;22.20;44.60;;;;;;10435379;28;20220;-21
2021/03/25 23:04:29;;;;;;;4.53;3.73;;;22.30;44.60;;;;;;10416957;28;20194;-21
2021/03/25 23:09:52;;;;;;;4.27;3.10;;;22.30;44.40;;;;;;10446101;28;20242;-21
2021/03/25 23:15:15;;;;;;;6.20;4.00;;;22.50;44.20;;;;;;10493659;28;20567;-19
2021/03/25 23:20:38;;;;;;;4.57;4.10;;;21.80;44.40;;;;;;10493448;28;20587;-22
2021/03/25 23:26:00;;;;;;;4.50;3.33;;;21.10;46.00;;;;;;10493859;28;20196;-21
2021/03/25 23:31:25;;;;;;;4.03;3.60;;;20.60;47.10;;;;;;10493499;28;20220;-19
2021/03/25 23:36:47;;;;;;;4.17;3.77;;;20.30;48.00;;;;;;10452005;28;20201;-21
2021/03/25 23:42:16;;;;;;;4.13;3.73;;;20.10;48.60;;;;;;10463800;28;20204;-21
2021/03/25 23:47:38;;;;;;;5.07;4.17;;;19.90;49.00;;;;;;10492902;28;20254;-23
2021/03/25 23:53:00;;;;;;;4.97;3.83;;;19.80;49.40;;;;;;10492592;28;20556;-22
2021/03/25 23:58:26;;;;;;;4.37;3.70;;;19.70;49.40;;;;;;10492986;28;20233;-20
